createdAt,value
2022-08-25T00:01:21.893Z,20.25
2022-08-25T00:06:31.227Z,20.22
2022-08-25T00:11:38.098Z,20.05
2022-08-25T00:16:59.157Z,20.03
2022-08-25T00:22:20.137Z,19.82
2022-08-25T00:27:22.298Z,19.88
2022-08-25T00:32:24.598Z,19.72
2022-08-25T00:37:26.959Z,19.49
2022-08-25T00:42:29.121Z,19.32
2022-08-25T00:47:31.426Z,19.80
2022-08-25T00:52:44.037Z,19.73
2022-08-25T00:57:58.518Z,19.69
2022-08-25T01:03:20.546Z,19.49
2022-08-25T01:08:46.138Z,19.78
2022-08-25T01:13:54.013Z,19.69
2022-08-25T01:19:15.817Z,19.56
2022-08-25T01:24:35.533Z,19.44
2022-08-25T01:29:38.787Z,19.34
2022-08-25T01:34:45.238Z,19.36
2022-08-25T01:40:06.682Z,19.02
2022-08-25T01:45:27.918Z,18.87
2022-08-25T01:50:32.036Z,18.79
2022-08-25T01:55:52.840Z,18.95
2022-08-25T02:01:19.385Z,18.94
2022-08-25T02:06:29.769Z,19.02
2022-08-25T02:11:33.484Z,18.70
2022-08-25T02:16:37.374Z,18.62
2022-08-25T02:21:39.941Z,18.50
2022-08-25T02:26:42.749Z,18.70
2022-08-25T02:31:46.347Z,18.57
2022-08-25T02:36:50.077Z,18.53
2022-08-25T02:41:53.416Z,18.40
2022-08-25T02:52:22.688Z,17.90
2022-08-25T02:57:43.998Z,17.95
2022-08-25T03:02:46.305Z,17.94
2022-08-25T03:08:08.156Z,18.22
2022-08-25T03:13:11.237Z,18.17
2022-08-25T03:18:14.058Z,18.32
2022-08-25T03:23:16.637Z,18.24
2022-08-25T03:28:37.897Z,18.16
2022-08-25T03:33:40.206Z,18.08
2022-08-25T03:38:43.240Z,18.11
2022-08-25T03:43:45.565Z,18.03
2022-08-25T03:48:52.416Z,18.01
2022-08-25T03:53:54.837Z,17.91
2022-08-25T03:58:57.184Z,18.01
2022-08-25T04:04:00.257Z,17.90
2022-08-25T04:09:02.518Z,17.58
2022-08-25T04:14:05.979Z,17.69
2022-08-25T04:19:08.917Z,17.86
2022-08-25T04:24:12.557Z,17.95
2022-08-25T04:29:18.098Z,17.97
2022-08-25T04:34:30.239Z,17.86
2022-08-25T04:39:34.337Z,17.65
2022-08-25T04:44:36.798Z,17.62
2022-08-25T04:49:39.458Z,17.82
2022-08-25T04:54:42.137Z,17.99
2022-08-25T05:05:30.008Z,17.96
2022-08-25T05:10:33.798Z,17.89
2022-08-25T05:15:42.623Z,18.10
2022-08-25T05:20:45.405Z,18.06
2022-08-25T05:25:48.918Z,18.22
2022-08-25T05:30:51.626Z,17.98
2022-08-25T05:35:54.246Z,18.09
2022-08-25T05:41:02.618Z,18.43
2022-08-25T05:46:05.677Z,18.46
2022-08-25T05:51:29.391Z,18.73
2022-08-25T05:56:32.082Z,18.86
2022-08-25T06:01:34.798Z,19.19
2022-08-25T06:06:37.427Z,19.09
2022-08-25T06:11:41.290Z,19.05
2022-08-25T06:16:44.781Z,19.13
2022-08-25T06:21:47.147Z,19.38
2022-08-25T06:26:49.958Z,19.62
2022-08-25T06:31:54.666Z,19.80
2022-08-25T06:36:57.231Z,19.94
2022-08-25T06:41:59.678Z,19.90
2022-08-25T06:52:29.420Z,20.59
2022-08-25T06:57:32.046Z,20.71
2022-08-25T07:02:35.954Z,20.74
2022-08-25T07:07:57.567Z,20.80
2022-08-25T07:13:18.122Z,20.93
2022-08-25T07:18:21.219Z,21.08
2022-08-25T07:23:24.590Z,21.36
2022-08-25T07:28:27.347Z,21.56
2022-08-25T07:33:34.499Z,22.15
2022-08-25T07:38:42.071Z,22.52
2022-08-25T07:43:46.280Z,24.27
2022-08-25T07:48:53.331Z,24.71
2022-08-25T07:53:55.800Z,26.93
2022-08-25T07:58:58.458Z,27.78
2022-08-25T08:04:03.668Z,28.18
2022-08-25T08:09:06.379Z,29.98
2022-08-25T08:14:08.866Z,29.23
2022-08-25T08:19:30.392Z,29.69
2022-08-25T08:24:54.779Z,29.83
2022-08-25T08:30:27.169Z,32.02
2022-08-25T08:36:05.445Z,32.23
2022-08-25T08:42:07.645Z,32.81
2022-08-25T08:48:09.571Z,33.43
2022-08-25T08:53:36.810Z,33.74
2022-08-25T08:59:01.507Z,32.29
2022-08-25T09:04:14.259Z,33.82
2022-08-25T09:09:36.425Z,33.98
2022-08-25T09:15:13.351Z,34.14
2022-08-25T09:20:54.979Z,34.05
2022-08-25T09:26:23.396Z,35.08
2022-08-25T09:31:35.976Z,35.05
2022-08-25T09:36:39.099Z,34.94
2022-08-25T09:41:46.537Z,34.44
2022-08-25T09:47:01.359Z,34.88
2022-08-25T09:52:29.877Z,35.55
2022-08-25T09:57:43.532Z,35.59
2022-08-25T10:03:12.020Z,34.99
2022-08-25T10:08:31.699Z,34.78
2022-08-25T10:13:44.978Z,35.62
2022-08-25T10:19:17.899Z,36.05
2022-08-25T10:24:23.189Z,35.97
2022-08-25T10:30:04.946Z,36.29
2022-08-25T10:35:14.543Z,36.29
2022-08-25T10:40:48.505Z,36.61
2022-08-25T10:46:12.635Z,36.93
2022-08-25T10:51:37.473Z,36.79
2022-08-25T10:57:15.278Z,37.38
2022-08-25T11:02:44.439Z,37.24
2022-08-25T11:08:11.481Z,37.33
2022-08-25T11:13:22.989Z,37.31
2022-08-25T11:18:28.546Z,37.15
2022-08-25T11:23:46.453Z,35.61
2022-08-25T11:29:20.936Z,36.40
2022-08-25T11:34:23.482Z,36.88
2022-08-25T11:39:54.994Z,35.06
2022-08-25T11:45:13.165Z,36.13
2022-08-25T11:50:56.199Z,36.37
2022-08-25T11:56:03.278Z,36.56
2022-08-25T12:01:11.804Z,36.52
2022-08-25T12:06:32.758Z,37.79
2022-08-25T12:11:43.789Z,38.04
2022-08-25T12:16:51.969Z,37.13
2022-08-25T12:22:16.199Z,37.76
2022-08-25T12:27:28.191Z,35.64
2022-08-25T12:32:58.319Z,36.20
2022-08-25T12:38:10.627Z,34.80
2022-08-25T12:43:37.487Z,36.75
2022-08-25T12:48:54.137Z,35.33
2022-08-25T12:54:40.570Z,36.21
2022-08-25T12:59:50.062Z,35.92
2022-08-25T13:04:55.809Z,34.43
2022-08-25T13:10:19.796Z,35.15
2022-08-25T13:15:37.606Z,35.23
2022-08-25T13:20:40.100Z,34.25
2022-08-25T13:25:52.799Z,33.90
2022-08-25T13:31:23.539Z,34.45
2022-08-25T13:36:52.069Z,34.80
2022-08-25T13:42:16.946Z,33.86
2022-08-25T13:47:43.369Z,34.30
2022-08-25T13:52:51.229Z,33.24
2022-08-25T13:57:54.289Z,33.72
2022-08-25T14:03:00.811Z,34.12
2022-08-25T14:08:34.449Z,34.72
2022-08-25T14:14:02.039Z,34.61
2022-08-25T14:19:05.699Z,34.18
2022-08-25T14:24:08.637Z,34.19
2022-08-25T14:29:15.609Z,34.29
2022-08-25T14:34:22.040Z,34.32
2022-08-25T14:39:27.825Z,34.29
2022-08-25T14:44:48.530Z,34.19
2022-08-25T14:49:50.871Z,34.02
2022-08-25T14:54:53.697Z,34.24
2022-08-25T14:59:56.531Z,34.45
2022-08-25T15:05:24.110Z,34.34
2022-08-25T15:10:27.558Z,34.57
2022-08-25T15:15:29.824Z,33.97
2022-08-25T15:20:32.235Z,34.30
2022-08-25T15:25:35.578Z,34.59
2022-08-25T15:30:39.412Z,34.41
2022-08-25T15:35:43.566Z,34.79
2022-08-25T15:41:08.297Z,34.49
2022-08-25T15:46:17.833Z,33.92
2022-08-25T15:51:20.740Z,33.77
2022-08-25T15:56:26.858Z,34.03
2022-08-25T16:01:30.485Z,33.94
2022-08-25T16:06:33.528Z,34.09
2022-08-25T16:11:38.506Z,34.03
2022-08-25T16:16:41.310Z,33.86
2022-08-25T16:21:47.109Z,33.41
2022-08-25T16:26:51.786Z,33.22
2022-08-25T16:31:55.197Z,33.05
2022-08-25T16:36:59.199Z,33.08
2022-08-25T16:42:21.641Z,32.98
2022-08-25T16:47:42.665Z,32.67
2022-08-25T16:52:45.692Z,32.49
2022-08-25T16:58:07.705Z,32.14
2022-08-25T17:03:33.510Z,31.84
2022-08-25T17:08:37.039Z,31.59
2022-08-25T17:13:44.558Z,31.60
2022-08-25T17:18:48.500Z,31.53
2022-08-25T17:23:51.476Z,31.29
2022-08-25T17:28:54.689Z,31.15
2022-08-25T17:34:20.358Z,30.61
2022-08-25T17:39:26.902Z,30.43
2022-08-25T17:44:30.039Z,30.22
2022-08-25T17:49:32.760Z,30.17
2022-08-25T17:54:35.037Z,30.16
2022-08-25T17:59:39.598Z,29.91
2022-08-25T18:04:42.849Z,29.88
2022-08-25T18:10:06.158Z,29.44
2022-08-25T18:15:09.795Z,29.27
2022-08-25T18:20:14.119Z,29.18
2022-08-25T18:25:16.998Z,29.09
2022-08-25T18:30:38.097Z,28.71
2022-08-25T18:35:59.020Z,28.73
2022-08-25T18:41:04.637Z,28.37
2022-08-25T18:46:10.910Z,27.92
2022-08-25T18:51:13.437Z,27.86
2022-08-25T18:56:15.858Z,27.46
2022-08-25T19:01:20.142Z,27.17
2022-08-25T19:06:23.958Z,27.07
2022-08-25T19:11:26.698Z,26.70
2022-08-25T19:16:40.827Z,26.75
2022-08-25T19:21:44.946Z,26.79
2022-08-25T19:26:54.748Z,26.50
2022-08-25T19:32:01.042Z,26.68
2022-08-25T19:37:26.337Z,26.72
2022-08-25T19:42:34.826Z,26.58
2022-08-25T19:47:41.757Z,26.51
2022-08-25T19:52:45.078Z,26.27
2022-08-25T19:57:47.385Z,26.11
2022-08-25T20:03:09.876Z,25.91
2022-08-25T20:08:12.816Z,25.77
2022-08-25T20:13:15.738Z,25.72
2022-08-25T20:18:19.809Z,25.62
2022-08-25T20:23:24.158Z,25.39
2022-08-25T20:28:26.737Z,25.15
2022-08-25T20:33:30.279Z,25.25
2022-08-25T20:38:33.116Z,24.96
2022-08-25T20:43:35.449Z,25.17
2022-08-25T20:48:39.565Z,25.05
2022-08-25T20:53:42.408Z,25.18
2022-08-25T20:59:03.518Z,24.95
2022-08-25T21:04:10.217Z,24.95
2022-08-25T21:09:21.721Z,25.10
2022-08-25T21:14:26.350Z,25.06
2022-08-25T21:19:30.158Z,24.86
2022-08-25T21:24:36.537Z,24.87
2022-08-25T21:29:39.137Z,24.79
2022-08-25T21:34:51.716Z,24.41
2022-08-25T21:39:54.377Z,24.42
2022-08-25T21:44:57.370Z,24.36
2022-08-25T21:50:00.575Z,24.32
2022-08-25T21:55:04.479Z,23.99
2022-08-25T22:00:08.816Z,23.82
2022-08-25T22:05:15.456Z,23.77
2022-08-25T22:10:18.917Z,23.77
2022-08-25T22:15:21.180Z,23.66
2022-08-25T22:20:23.457Z,23.42
2022-08-25T22:25:27.775Z,23.24
2022-08-25T22:30:30.263Z,23.12
2022-08-25T22:35:33.518Z,23.24
2022-08-25T22:40:37.805Z,23.29
2022-08-25T22:45:40.198Z,23.31
2022-08-25T22:50:43.032Z,23.45
2022-08-25T22:55:45.297Z,23.33
2022-08-25T23:00:48.659Z,23.22
2022-08-25T23:05:51.158Z,22.90
2022-08-25T23:11:13.817Z,22.73
2022-08-25T23:16:17.169Z,22.83
2022-08-25T23:21:41.218Z,22.83
2022-08-25T23:26:45.222Z,22.87
2022-08-25T23:31:53.692Z,22.77
2022-08-25T23:36:57.365Z,22.98
2022-08-25T23:42:19.821Z,23.08
2022-08-25T23:47:40.377Z,23.12
2022-08-25T23:53:07.760Z,23.03
2022-08-25T23:58:29.958Z,22.99
